Time;durP1;ratioP1;P1;durP2;ratioP2;P2;SDS_P1;SDS_P2;PMS_P1;PMS_P2;Temp;Humidity;BMP_temperature;BMP_pressure;BME280_temperature;BME280_humidity;BME280_pressure;Samples;Min_cycle;Max_cycle;Signal;HPM_P1;HPM_P2
2023/09/28 00:00:44;;;;;;;;;;;;;;;25.24;67.74;101441.19;5068523;28;19920;-88
2023/09/28 00:03:10;;;;;;;;;;;;;;;25.23;68.10;101439.44;5068218;28;20370;-88
2023/09/28 00:05:43;;;;;;;;;;;;;;;25.22;67.82;101440.28;5049340;28;20421;-88
2023/09/28 00:08:09;;;;;;;;;;;;;;;25.28;67.45;101434.97;5068509;28;19916;-88
2023/09/28 00:10:36;;;;;;;;;;;;;;;25.26;67.70;101431.41;5060397;28;19978;-88
2023/09/28 00:13:01;;;;;;;;;;;;;;;25.26;67.59;101433.19;5069178;28;19979;-90
2023/09/28 00:15:27;;;;;;;;;;;;;;;25.26;67.47;101441.22;5069787;28;20373;-90
2023/09/28 00:17:54;;;;;;;;;;;;;;;25.26;67.58;101441.22;5065060;28;19916;-88
2023/09/28 00:20:22;;;;;;;;;;;;;;;25.25;67.51;101431.38;5043203;28;19916;-90
2023/09/28 00:22:50;;;;;;;;;;;;;;;25.23;67.80;101430.50;5064486;28;20030;-88
2023/09/28 00:25:23;;;;;;;;;;;;;;;25.23;67.47;101428.72;5066344;28;20527;-89
2023/09/28 00:27:58;;;;;;;;;;;;;;;25.25;67.58;101431.38;5067577;28;19954;-89
2023/09/28 00:30:26;;;;;;;;;;;;;;;25.25;67.50;101426.03;5067406;28;19995;-90
2023/09/28 00:32:59;;;;;;;;;;;;;;;25.22;67.45;101426.03;5072818;28;20305;-90
2023/09/28 00:35:26;;;;;;;;;;;;;;;25.19;67.52;101422.44;5052927;28;19917;-90
2023/09/28 00:37:53;;;;;;;;;;;;;;;25.17;67.61;101431.34;5073934;28;19921;-90
2023/09/28 00:40:28;;;;;;;;;;;;;;;25.16;67.75;101424.19;5070945;28;20404;-89
2023/09/28 00:42:54;;;;;;;;;;;;;;;25.22;67.27;101426.03;5071337;28;19924;-89
2023/09/28 00:45:26;;;;;;;;;;;;;;;25.28;67.25;101429.63;5043129;28;19913;-88
2023/09/28 00:47:54;;;;;;;;;;;;;;;25.30;67.00;101432.31;5071907;28;19960;-89
2023/09/28 00:50:20;;;;;;;;;;;;;;;25.15;67.18;101412.63;5080062;28;20019;-89
2023/09/28 00:52:57;;;;;;;;;;;;;;;25.27;66.80;101441.19;5055462;28;19920;-89
2023/09/28 00:55:23;;;;;;;;;;;;;;;25.27;67.04;101438.53;5061517;28;19912;-89
2023/09/28 00:57:48;;;;;;;;;;;;;;;25.29;67.08;101443.88;5074307;28;20447;-89
2023/09/28 01:00:29;;;;;;;;;;;;;;;25.28;66.85;101434.97;5070693;28;19925;-89
2023/09/28 01:02:55;;;;;;;;;;;;;;;25.30;67.20;101435.00;5059726;28;20335;-90
2023/09/28 01:05:42;;;;;;;;;;;;;;;25.27;66.82;101435.84;5073884;28;19913;-89
2023/09/28 01:08:12;;;;;;;;;;;;;;;25.24;67.14;101435.84;5071785;28;19912;-89
2023/09/28 01:10:38;;;;;;;;;;;;;;;25.19;67.53;101434.91;5055834;28;19962;-89
2023/09/28 01:13:12;;;;;;;;;;;;;;;25.21;67.26;101429.59;5072942;28;19912;-88
2023/09/28 01:15:47;;;;;;;;;;;;;;;25.22;67.09;101432.28;5071802;28;19916;-89
2023/09/28 01:18:16;;;;;;;;;;;;;;;25.24;67.00;101433.19;5056960;28;19912;-90
2023/09/28 01:20:43;;;;;;;;;;;;;;;25.21;67.29;101427.84;5067048;28;19917;-90
2023/09/28 01:23:18;;;;;;;;;;;;;;;25.19;67.43;101429.56;5073654;28;19913;-90
2023/09/28 01:25:47;;;;;;;;;;;;;;;25.15;67.28;101427.78;5069700;28;19917;-90
2023/09/28 01:28:18;;;;;;;;;;;;;;;25.21;67.22;101424.25;5081768;28;19916;-89
2023/09/28 01:30:45;;;;;;;;;;;;;;;25.17;67.71;101421.53;5061463;28;20003;-90
2023/09/28 01:33:11;;;;;;;;;;;;;;;25.15;67.53;101422.41;5056301;28;19916;-88
2023/09/28 01:35:37;;;;;;;;;;;;;;;25.13;67.41;101417.06;5072995;28;19912;-89
2023/09/28 01:38:13;;;;;;;;;;;;;;;25.15;67.53;101417.06;5052496;28;19921;-89
2023/09/28 01:40:39;;;;;;;;;;;;;;;25.13;67.73;101422.41;5068412;28;19970;-89
2023/09/28 01:43:05;;;;;;;;;;;;;;;25.11;67.73;101418.84;5072516;28;19916;-88
2023/09/28 01:45:30;;;;;;;;;;;;;;;25.15;67.50;101422.41;5055928;28;19913;-88
2023/09/28 01:47:55;;;;;;;;;;;;;;;25.22;67.27;101423.38;5070323;28;19925;-88
2023/09/28 01:50:21;;;;;;;;;;;;;;;25.16;67.51;101417.06;5059845;28;19924;-88
2023/09/28 01:52:47;;;;;;;;;;;;;;;25.15;67.30;101419.75;5071225;28;19962;-88
2023/09/28 01:55:13;;;;;;;;;;;;;;;25.22;67.05;101421.59;5070549;28;19994;-88
2023/09/28 01:57:38;;;;;;;;;;;;;;;25.13;67.30;101421.53;5071053;28;20363;-89
2023/09/28 02:00:14;;;;;;;;;;;;;;;25.16;67.30;101432.22;5086805;28;19916;-90
2023/09/28 02:02:39;;;;;;;;;;;;;;;25.13;67.40;101434.88;5052659;28;20058;-90
2023/09/28 02:05:08;;;;;;;;;;;;;;;25.14;67.24;101437.53;5048485;28;20007;-89
2023/09/28 02:07:35;;;;;;;;;;;;;;;25.12;67.48;101435.75;5064267;28;19920;-88
2023/09/28 02:10:26;;;;;;;;;;;;;;;25.11;67.40;101442.88;5053593;28;19920;-88
2023/09/28 02:12:58;;;;;;;;;;;;;;;25.13;67.02;101445.56;5068215;28;19916;-89
2023/09/28 02:15:48;;;;;;;;;;;;;;;25.13;67.59;101438.44;5071327;28;20003;-88
2023/09/28 02:18:29;;;;;;;;;;;;;;;25.11;67.53;101444.69;5071774;28;19923;-89
2023/09/28 02:21:11;;;;;;;;;;;;;;;25.08;67.43;101437.53;5068000;28;19917;-89
2023/09/28 02:23:40;;;;;;;;;;;;;;;25.11;67.51;101442.88;5063956;28;19917;-89
2023/09/28 02:26:18;;;;;;;;;;;;;;;25.11;67.17;101433.97;5070047;28;19927;-89
2023/09/28 02:28:46;;;;;;;;;;;;;;;25.13;67.35;101433.09;5072619;28;19917;-89
2023/09/28 02:31:11;;;;;;;;;;;;;;;25.08;67.40;101439.28;5050761;28;19917;-89
2023/09/28 02:33:39;;;;;;;;;;;;;;;25.10;67.57;101435.75;5065198;28;20447;-89
2023/09/28 02:36:04;;;;;;;;;;;;;;;25.13;67.35;101434.88;5068563;28;19999;-89
2023/09/28 02:38:30;;;;;;;;;;;;;;;25.09;67.04;101428.63;5073464;28;19913;-88
2023/09/28 02:40:56;;;;;;;;;;;;;;;25.08;67.83;101437.53;5069584;28;20406;-90
2023/09/28 02:43:23;;;;;;;;;;;;;;;25.06;67.63;101439.31;5049980;28;20378;-92
2023/09/28 02:45:58;;;;;;;;;;;;;;;25.11;67.28;101447.34;5067505;28;19919;-91
2023/09/28 02:48:33;;;;;;;;;;;;;;;25.05;67.13;101456.22;5050872;28;19921;-93
2023/09/28 02:50:59;;;;;;;;;;;;;;;24.98;67.75;101455.28;5046689;28;19928;-93
2023/09/28 02:53:51;;;;;;;;;;;;;;;25.04;67.24;101454.44;5051781;28;19921;-92
2023/09/28 02:59:39;;;;;;;;;;;;;;;24.99;67.66;101459.75;5051228;28;19959;-92
2023/09/28 03:02:09;;;;;;;;;;;;;;;25.04;67.73;101458.88;5055840;28;19917;-90
2023/09/28 03:04:35;;;;;;;;;;;;;;;25.05;67.35;101455.34;5051517;28;19923;-91
2023/09/28 03:07:05;;;;;;;;;;;;;;;25.02;67.59;101453.53;5055169;28;19916;-92
2023/09/28 03:09:32;;;;;;;;;;;;;;;25.02;67.68;101458.88;5032532;28;20011;-89
2023/09/28 03:11:59;;;;;;;;;;;;;;;25.02;67.49;101456.22;5050034;28;20404;-90
2023/09/28 03:14:25;;;;;;;;;;;;;;;25.04;67.76;101459.78;5048988;28;19916;-89
2023/09/28 03:16:51;;;;;;;;;;;;;;;25.05;67.49;101460.69;5063309;28;20391;-88
2023/09/28 03:19:16;;;;;;;;;;;;;;;25.07;67.51;101449.09;5045348;28;19927;-88
2023/09/28 03:21:42;;;;;;;;;;;;;;;25.11;67.13;101450.03;5041482;28;20427;-89
2023/09/28 03:24:11;;;;;;;;;;;;;;;25.05;67.57;101450.00;5047180;28;20426;-90
2023/09/28 03:26:38;;;;;;;;;;;;;;;25.07;67.63;101450.88;5047742;28;20082;-88
2023/09/28 03:29:03;;;;;;;;;;;;;;;25.04;67.51;101449.09;5049638;28;19925;-89
2023/09/28 03:31:29;;;;;;;;;;;;;;;25.07;67.44;101443.75;5048141;28;19927;-87
2023/09/28 03:33:54;;;;;;;;;;;;;;;25.05;67.80;101450.00;5049438;28;19924;-89
2023/09/28 03:36:21;;;;;;;;;;;;;;;25.01;67.64;101446.41;5064715;28;19942;-90
2023/09/28 03:38:48;;;;;;;;;;;;;;;24.98;67.57;101441.06;5047788;28;20383;-88
2023/09/28 03:41:14;;;;;;;;;;;;;;;24.97;67.70;101426.78;5057816;28;19924;-87
2023/09/28 03:43:42;;;;;;;;;;;;;;;24.94;67.67;101434.78;5040790;28;19917;-88
2023/09/28 03:46:27;;;;;;;;;;;;;;;24.99;68.04;101445.50;5048187;28;19924;-87
2023/09/28 03:48:52;;;;;;;;;;;;;;;24.97;67.77;101439.25;5069312;28;19974;-89
2023/09/28 03:51:18;;;;;;;;;;;;;;;25.03;67.58;101435.72;5058034;28;19924;-88
2023/09/28 03:53:46;;;;;;;;;;;;;;;24.97;67.82;101444.59;5055161;28;20325;-88
2023/09/28 03:56:11;;;;;;;;;;;;;;;24.98;67.99;101433.03;5054482;28;19927;-88
2023/09/28 03:58:37;;;;;;;;;;;;;;;25.02;67.69;101442.84;5071536;28;19916;-88
2023/09/28 04:01:07;;;;;;;;;;;;;;;25.07;67.44;101446.44;5086633;28;20336;-88
2023/09/28 04:03:36;;;;;;;;;;;;;;;24.91;67.71;101437.44;5045569;28;19924;-89
2023/09/28 04:06:01;;;;;;;;;;;;;;;25.01;67.70;101443.72;5084178;28;19920;-87
2023/09/28 04:08:27;;;;;;;;;;;;;;;25.01;67.32;101443.72;5074297;28;20401;-87
2023/09/28 04:10:54;;;;;;;;;;;;;;;25.01;67.71;101435.72;5068885;28;20228;-88
2023/09/28 04:13:20;;;;;;;;;;;;;;;25.06;67.62;101441.06;5073884;28;19930;-88
2023/09/28 04:15:48;;;;;;;;;;;;;;;25.01;67.28;101441.06;5091411;28;19915;-88
2023/09/28 04:18:14;;;;;;;;;;;;;;;25.02;67.28;101439.25;5071755;28;19947;-88
2023/09/28 04:20:41;;;;;;;;;;;;;;;25.00;67.30;101441.94;5072487;28;19958;-88
2023/09/28 04:23:08;;;;;;;;;;;;;;;24.95;67.30;101433.88;5086903;28;19975;-86
2023/09/28 04:25:34;;;;;;;;;;;;;;;24.98;67.09;101447.28;5063024;28;19927;-89
2023/09/28 04:27:59;;;;;;;;;;;;;;;25.03;66.74;101446.41;5074548;28;19916;-89
2023/09/28 04:30:25;;;;;;;;;;;;;;;24.94;67.24;101445.47;5089062;28;19920;-88
2023/09/28 04:32:51;;;;;;;;;;;;;;;24.93;67.76;101450.81;5072438;28;20377;-89
2023/09/28 04:35:18;;;;;;;;;;;;;;;24.89;67.72;101460.59;5056226;28;19990;-89
2023/09/28 04:37:45;;;;;;;;;;;;;;;24.95;67.66;101473.09;5068389;28;19977;-89
2023/09/28 04:40:11;;;;;;;;;;;;;;;24.92;67.45;101471.28;5072817;28;19916;-90
2023/09/28 04:42:38;;;;;;;;;;;;;;;24.97;67.41;101474.88;5073795;28;19916;-90
2023/09/28 04:45:04;;;;;;;;;;;;;;;24.94;67.48;101480.22;5057276;28;19954;-88
2023/09/28 04:47:30;;;;;;;;;;;;;;;24.94;67.60;101476.66;5054867;28;20574;-89
2023/09/28 04:49:55;;;;;;;;;;;;;;;24.91;67.86;101482.88;5073839;28;20018;-91
2023/09/28 04:52:22;;;;;;;;;;;;;;;24.92;67.75;101481.09;5073856;28;20399;-90
2023/09/28 04:54:48;;;;;;;;;;;;;;;24.88;68.08;101485.50;5056770;28;19919;-90
2023/09/28 04:57:14;;;;;;;;;;;;;;;24.88;68.07;101495.31;5071273;28;19916;-89
2023/09/28 04:59:40;;;;;;;;;;;;;;;24.98;67.62;101499.84;5091030;28;19920;-91
2023/09/28 05:02:05;;;;;;;;;;;;;;;24.94;67.75;101506.03;5062822;28;19916;-92
2023/09/28 05:04:32;;;;;;;;;;;;;;;24.91;67.89;101498.91;5058657;28;19924;-92
2023/09/28 05:07:05;;;;;;;;;;;;;;;24.87;67.92;101504.19;5057409;28;19959;-93
2023/09/28 05:09:42;;;;;;;;;;;;;;;24.91;67.53;101504.25;5067095;28;19954;-92
2023/09/28 05:12:17;;;;;;;;;;;;;;;24.96;67.42;101504.28;5072502;28;19926;-93
2023/09/28 05:14:48;;;;;;;;;;;;;;;24.96;67.47;101496.25;5064622;28;20305;-94
2023/09/28 05:17:14;;;;;;;;;;;;;;;24.91;67.29;101498.00;5078788;28;19966;-92
2023/09/28 05:19:43;;;;;;;;;;;;;;;24.91;67.37;101500.66;5056602;28;19916;-92
2023/09/28 05:22:10;;;;;;;;;;;;;;;24.94;67.40;101503.38;5099705;28;19941;-90
2023/09/28 05:24:35;;;;;;;;;;;;;;;24.93;67.21;101507.84;5068934;28;21483;-90
2023/09/28 05:27:02;;;;;;;;;;;;;;;24.90;67.37;101502.44;5063567;28;19916;-92
2023/09/28 05:29:29;;;;;;;;;;;;;;;24.94;67.19;101506.94;5078256;28;20412;-91
2023/09/28 05:31:56;;;;;;;;;;;;;;;24.91;67.49;101501.59;5074989;28;19924;-90
2023/09/28 05:34:21;;;;;;;;;;;;;;;24.90;67.44;101499.78;5071669;28;19927;-89
2023/09/28 05:36:47;;;;;;;;;;;;;;;24.91;67.32;101504.25;5093219;28;19916;-89
2023/09/28 05:39:12;;;;;;;;;;;;;;;24.91;67.08;101504.25;5097021;28;19916;-89
2023/09/28 05:41:38;;;;;;;;;;;;;;;24.89;67.14;101502.44;5057334;28;20002;-89
2023/09/28 05:44:04;;;;;;;;;;;;;;;24.86;66.91;101507.75;5076576;28;19916;-89
2023/09/28 05:46:30;;;;;;;;;;;;;;;24.85;67.12;101506.88;5092927;28;19952;-90
2023/09/28 05:48:55;;;;;;;;;;;;;;;24.66;67.87;101503.19;5058241;28;20385;-90
2023/09/28 05:51:21;;;;;;;;;;;;;;;24.76;67.19;101505.03;5061220;28;20030;-89
2023/09/28 05:53:50;;;;;;;;;;;;;;;24.80;67.10;101505.94;5089649;28;19963;-90
2023/09/28 05:56:18;;;;;;;;;;;;;;;24.87;67.14;101506.88;5084581;28;19965;-90
2023/09/28 05:58:44;;;;;;;;;;;;;;;24.90;66.92;101512.25;5069236;28;19923;-91
2023/09/28 06:01:17;;;;;;;;;;;;;;;24.90;66.89;101514.91;5056678;28;20004;-90
2023/09/28 06:03:45;;;;;;;;;;;;;;;24.83;66.80;101518.41;5061422;28;20390;-90
2023/09/28 06:06:15;;;;;;;;;;;;;;;24.89;66.94;101522.06;5088520;28;19916;-90
2023/09/28 06:08:41;;;;;;;;;;;;;;;24.89;66.82;101523.81;5070901;28;19916;-90
2023/09/28 06:11:09;;;;;;;;;;;;;;;24.90;66.85;101523.81;5074056;28;20507;-91
2023/09/28 06:13:35;;;;;;;;;;;;;;;24.86;67.02;101521.13;5072629;28;19962;-91
2023/09/28 06:16:05;;;;;;;;;;;;;;;24.85;67.15;101522.00;5060109;28;19986;-91
2023/09/28 06:18:30;;;;;;;;;;;;;;;24.86;66.93;101526.47;5059106;28;19920;-91
2023/09/28 06:20:55;;;;;;;;;;;;;;;24.90;66.71;101534.50;5075511;28;19920;-90
2023/09/28 06:23:21;;;;;;;;;;;;;;;24.84;67.18;101531.78;5090353;28;19976;-91
2023/09/28 06:25:47;;;;;;;;;;;;;;;24.89;66.62;101538.09;5057132;28;19920;-90
2023/09/28 06:28:12;;;;;;;;;;;;;;;24.81;66.88;101534.47;5075386;28;19994;-89
2023/09/28 06:30:41;;;;;;;;;;;;;;;24.86;66.92;101540.72;5067774;28;20039;-90
2023/09/28 06:33:06;;;;;;;;;;;;;;;24.82;66.75;101536.22;5075395;28;19926;-90
2023/09/28 06:35:37;;;;;;;;;;;;;;;24.85;66.71;101540.69;5073970;28;19994;-94
2023/09/28 06:38:08;;;;;;;;;;;;;;;24.85;66.87;101543.38;5075682;28;19938;-93
2023/09/28 06:40:34;;;;;;;;;;;;;;;24.85;66.96;101546.97;5056057;28;19931;-91
2023/09/28 06:42:59;;;;;;;;;;;;;;;24.83;67.04;101550.47;5063446;28;20374;-91
2023/09/28 06:45:25;;;;;;;;;;;;;;;24.86;66.77;101561.19;5074961;28;20006;-94
2023/09/28 06:47:53;;;;;;;;;;;;;;;24.86;66.67;101562.09;5057146;28;19920;-90
2023/09/28 06:50:19;;;;;;;;;;;;;;;24.87;66.71;101560.31;5060192;28;19923;-92
2023/09/28 06:52:56;;;;;;;;;;;;;;;24.85;66.73;101559.41;5067974;28;19923;-90
2023/09/28 06:55:26;;;;;;;;;;;;;;;24.84;66.75;101568.31;5062635;28;19916;-92
2023/09/28 06:57:54;;;;;;;;;;;;;;;24.86;66.71;101579.91;5091278;28;19924;-91
2023/09/28 07:00:20;;;;;;;;;;;;;;;24.82;66.67;101575.41;5078058;28;19998;-91
2023/09/28 07:02:49;;;;;;;;;;;;;;;24.86;66.71;101585.25;5065376;28;19962;-92
2023/09/28 07:05:16;;;;;;;;;;;;;;;24.86;66.46;101591.47;5074001;28;19916;-92
2023/09/28 07:07:45;;;;;;;;;;;;;;;24.87;66.51;101595.03;5059661;28;19924;-94
2023/09/28 07:10:29;;;;;;;;;;;;;;;24.85;66.70;101587.03;5092221;28;19942;-95
2023/09/28 07:13:10;;;;;;;;;;;;;;;24.87;66.79;101592.38;5074444;28;20307;-94
2023/09/28 07:15:42;;;;;;;;;;;;;;;24.83;66.63;101590.53;5065027;28;20294;-94
2023/09/28 07:18:11;;;;;;;;;;;;;;;24.86;66.96;101594.16;5073385;28;19916;-92
2023/09/28 07:20:36;;;;;;;;;;;;;;;24.87;66.69;101595.03;5073530;28;19936;-90
2023/09/28 07:23:02;;;;;;;;;;;;;;;24.85;66.55;101597.72;5073626;28;19916;-89
2023/09/28 07:25:29;;;;;;;;;;;;;;;24.86;66.72;101598.59;5072100;28;19938;-88
2023/09/28 07:27:55;;;;;;;;;;;;;;;24.87;66.83;101601.31;5052955;28;20021;-86
2023/09/28 07:30:22;;;;;;;;;;;;;;;24.88;66.72;101615.56;5076323;28;19921;-88
2023/09/28 07:32:51;;;;;;;;;;;;;;;24.75;66.67;101615.44;5088058;28;20384;-89
2023/09/28 07:35:20;;;;;;;;;;;;;;;24.86;66.50;101612.84;5089748;28;20416;-91
2023/09/28 07:37:50;;;;;;;;;;;;;;;24.83;66.95;101609.25;5090688;28;19916;-91
2023/09/28 07:40:17;;;;;;;;;;;;;;;24.86;66.81;101622.66;5054754;28;19956;-91
2023/09/28 07:42:46;;;;;;;;;;;;;;;24.86;66.58;101611.97;5068893;28;19923;-90
2023/09/28 07:45:12;;;;;;;;;;;;;;;24.89;66.91;101617.31;5057484;28;19920;-89
2023/09/28 07:47:41;;;;;;;;;;;;;;;24.87;66.95;101613.75;5072410;28;19924;-88
2023/09/28 07:50:06;;;;;;;;;;;;;;;24.84;66.89;101627.97;5087252;28;19986;-86
2023/09/28 07:52:32;;;;;;;;;;;;;;;24.88;66.47;101626.25;5079405;28;20397;-86
2023/09/28 07:54:57;;;;;;;;;;;;;;;24.89;66.78;101620.91;5070815;28;20006;-87
2023/09/28 07:57:23;;;;;;;;;;;;;;;24.91;66.58;101620.91;5076673;28;19923;-87
2023/09/28 07:59:48;;;;;;;;;;;;;;;24.85;66.33;101624.44;5098451;28;19912;-87
2023/09/28 08:02:14;;;;;;;;;;;;;;;24.87;66.27;101620.00;5080256;28;19916;-87
2023/09/28 08:04:39;;;;;;;;;;;;;;;24.88;66.13;101620.88;5084186;28;19924;-86
2023/09/28 08:07:05;;;;;;;;;;;;;;;24.87;66.19;101617.34;5090717;28;19973;-87
2023/09/28 08:09:32;;;;;;;;;;;;;;;24.84;66.41;101609.28;5070464;28;19969;-87
2023/09/28 08:11:58;;;;;;;;;;;;;;;24.88;65.98;101608.41;5090011;28;19916;-87
2023/09/28 08:14:23;;;;;;;;;;;;;;;24.88;66.25;101611.09;5087600;28;19927;-87
2023/09/28 08:16:50;;;;;;;;;;;;;;;24.89;66.20;101611.97;5085325;28;19912;-87
2023/09/28 08:19:15;;;;;;;;;;;;;;;24.85;66.13;101608.41;5103962;28;20389;-88
2023/09/28 08:21:42;;;;;;;;;;;;;;;24.86;66.29;101604.84;5088928;28;19942;-88
2023/09/28 08:24:08;;;;;;;;;;;;;;;24.85;66.31;101612.84;5090058;28;19916;-89
2023/09/28 08:26:34;;;;;;;;;;;;;;;24.88;66.16;101618.22;5068688;28;19919;-86
2023/09/28 08:29:00;;;;;;;;;;;;;;;24.87;66.00;101613.75;5101654;28;19920;-87
2023/09/28 08:31:27;;;;;;;;;;;;;;;24.86;66.28;101623.53;5066871;28;20015;-86
2023/09/28 08:33:52;;;;;;;;;;;;;;;24.90;66.13;101613.78;5086697;28;19979;-86
2023/09/28 08:36:18;;;;;;;;;;;;;;;24.88;66.06;101620.88;5104722;28;20313;-87
2023/09/28 08:38:44;;;;;;;;;;;;;;;24.88;65.97;101616.44;5069877;28;19912;-88
2023/09/28 08:41:10;;;;;;;;;;;;;;;24.88;65.86;101612.88;5087523;28;19912;-88
2023/09/28 08:43:50;;;;;;;;;;;;;;;24.89;65.73;101612.91;5070099;28;20003;-88
2023/09/28 08:46:16;;;;;;;;;;;;;;;24.90;65.82;101611.13;5083393;28;19912;-87
2023/09/28 08:48:43;;;;;;;;;;;;;;;24.90;65.89;101609.31;5081896;28;19983;-87
2023/09/28 08:51:10;;;;;;;;;;;;;;;24.90;65.83;101603.09;5087896;28;19920;-87
2023/09/28 08:53:40;;;;;;;;;;;;;;;24.92;65.78;101609.34;5066791;28;19912;-88
2023/09/28 08:56:06;;;;;;;;;;;;;;;24.88;66.07;101596.84;5070009;28;19952;-90
2023/09/28 08:58:34;;;;;;;;;;;;;;;24.84;66.33;101598.59;5103235;28;19919;-88
2023/09/28 09:01:01;;;;;;;;;;;;;;;24.83;66.73;101591.47;5079705;28;19919;-88
2023/09/28 09:03:33;;;;;;;;;;;;;;;24.81;66.25;101585.22;5077845;28;19970;-88
2023/09/28 09:05:58;;;;;;;;;;;;;;;24.80;66.05;101586.09;5057554;28;19917;-85
2023/09/28 09:08:25;;;;;;;;;;;;;;;24.78;67.21;101586.06;5094364;28;20057;-89
2023/09/28 09:10:51;;;;;;;;;;;;;;;24.84;66.50;101587.91;5076302;28;20443;-85
2023/09/28 09:13:17;;;;;;;;;;;;;;;24.83;66.86;101583.47;5077724;28;19998;-87
2023/09/28 09:15:43;;;;;;;;;;;;;;;24.79;66.55;101582.53;5077921;28;19912;-87
2023/09/28 09:18:15;;;;;;;;;;;;;;;24.86;67.17;101587.91;5095541;28;19912;-86
2023/09/28 09:20:41;;;;;;;;;;;;;;;24.81;67.11;101587.88;5059372;28;19919;-88
2023/09/28 09:23:13;;;;;;;;;;;;;;;24.84;66.38;101585.22;5095797;28;20015;-87
2023/09/28 09:25:41;;;;;;;;;;;;;;;24.88;66.28;101592.38;5095655;28;19960;-87
2023/09/28 09:28:08;;;;;;;;;;;;;;;24.81;66.83;101579.88;5096344;28;19912;-86
2023/09/28 09:30:42;;;;;;;;;;;;;;;24.87;67.09;101584.34;5079344;28;20002;-86
2023/09/28 09:33:08;;;;;;;;;;;;;;;24.87;67.19;101590.63;5086281;28;19955;-87
2023/09/28 09:35:35;;;;;;;;;;;;;;;24.84;66.88;101579.88;5098993;28;20312;-88
2023/09/28 09:38:01;;;;;;;;;;;;;;;24.86;66.73;101575.44;5071830;28;20140;-88
2023/09/28 09:40:26;;;;;;;;;;;;;;;24.89;66.85;101577.25;5094460;28;19973;-87
2023/09/28 09:42:52;;;;;;;;;;;;;;;24.85;67.38;101578.09;5099375;28;19912;-88
2023/09/28 09:45:23;;;;;;;;;;;;;;;24.84;67.18;101565.63;5080940;28;19912;-87
2023/09/28 09:47:49;;;;;;;;;;;;;;;24.87;67.18;101560.31;5081462;28;20317;-88
2023/09/28 09:50:14;;;;;;;;;;;;;;;24.88;67.44;101568.34;5079531;28;19916;-87
2023/09/28 09:52:44;;;;;;;;;;;;;;;24.88;67.21;101567.47;5063661;28;19918;-87
2023/09/28 09:55:12;;;;;;;;;;;;;;;24.86;67.39;101567.44;5078860;28;19985;-87
2023/09/28 09:57:38;;;;;;;;;;;;;;;24.90;67.37;101565.69;5080528;28;19915;-87
2023/09/28 10:00:06;;;;;;;;;;;;;;;24.89;67.07;101567.47;5079700;28;19934;-86
2023/09/28 10:02:31;;;;;;;;;;;;;;;24.91;67.14;101562.13;5077261;28;19912;-88
2023/09/28 10:04:57;;;;;;;;;;;;;;;24.91;67.29;101551.44;5075700;28;19923;-86
2023/09/28 10:07:29;;;;;;;;;;;;;;;24.90;67.23;101553.22;5092080;28;19923;-87
2023/09/28 10:09:55;;;;;;;;;;;;;;;24.95;67.06;101545.22;5075299;28;19927;-87
2023/09/28 10:12:21;;;;;;;;;;;;;;;24.88;67.21;101552.31;5091896;28;19916;-88
2023/09/28 10:14:46;;;;;;;;;;;;;;;24.88;66.89;101538.94;5092956;28;19923;-87
2023/09/28 10:17:12;;;;;;;;;;;;;;;24.90;67.13;101545.19;5095273;28;20408;-87
2023/09/28 10:19:38;;;;;;;;;;;;;;;24.91;67.04;101544.34;5074943;28;20010;-87
2023/09/28 10:22:04;;;;;;;;;;;;;;;24.91;66.94;101543.41;5094490;28;19912;-87
2023/09/28 10:24:32;;;;;;;;;;;;;;;24.90;67.10;101542.53;5075513;28;19912;-87
2023/09/28 10:26:59;;;;;;;;;;;;;;;24.87;67.07;101534.50;5075470;28;19924;-88
2023/09/28 10:29:30;;;;;;;;;;;;;;;24.91;66.36;101539.00;5073652;28;20405;-87
2023/09/28 10:31:56;;;;;;;;;;;;;;;24.93;66.32;101549.66;5076082;28;19945;-87
2023/09/28 10:34:23;;;;;;;;;;;;;;;24.89;66.70;101540.75;5076093;28;19922;-87
2023/09/28 10:37:07;;;;;;;;;;;;;;;24.92;66.53;101542.56;5093920;28;20011;-87
2023/09/28 10:39:33;;;;;;;;;;;;;;;24.90;66.95;101537.19;5081895;28;20380;-88
2023/09/28 10:42:06;;;;;;;;;;;;;;;24.92;66.53;101537.19;5093821;28;20397;-87
2023/09/28 10:44:32;;;;;;;;;;;;;;;24.88;66.73;101536.28;5075152;28;19916;-88
2023/09/28 10:46:57;;;;;;;;;;;;;;;24.88;66.46;101538.06;5072432;28;19932;-88
2023/09/28 10:49:23;;;;;;;;;;;;;;;24.92;66.69;101531.88;5071903;28;20451;-87
2023/09/28 10:51:48;;;;;;;;;;;;;;;24.91;66.66;101532.72;5072621;28;20359;-87
2023/09/28 10:54:14;;;;;;;;;;;;;;;24.91;66.61;101532.72;5072138;28;20374;-87
2023/09/28 10:56:39;;;;;;;;;;;;;;;24.92;66.59;101530.06;5072086;28;19912;-87
2023/09/28 10:59:10;;;;;;;;;;;;;;;24.94;66.95;101522.06;5071935;28;19912;-89
2023/09/28 11:01:40;;;;;;;;;;;;;;;24.93;66.63;101522.94;5070963;28;20019;-86
2023/09/28 11:04:05;;;;;;;;;;;;;;;24.94;66.87;101519.41;5072037;28;19912;-86
2023/09/28 11:06:32;;;;;;;;;;;;;;;24.94;66.80;101522.06;5071706;28;19916;-88
2023/09/28 11:09:01;;;;;;;;;;;;;;;24.94;66.55;101517.63;5071702;28;19920;-87
2023/09/28 11:11:27;;;;;;;;;;;;;;;24.98;66.83;101513.19;5070666;28;19912;-88
2023/09/28 11:13:56;;;;;;;;;;;;;;;24.98;66.71;101502.50;5071341;28;20716;-89
2023/09/28 11:16:21;;;;;;;;;;;;;;;24.94;66.00;101509.59;5071851;28;19966;-87
2023/09/28 11:18:47;;;;;;;;;;;;;;;24.97;66.72;101512.28;5049676;28;20378;-88
2023/09/28 11:21:12;;;;;;;;;;;;;;;24.99;66.65;101512.28;5052905;28;19912;-88
2023/09/28 11:23:39;;;;;;;;;;;;;;;24.99;66.74;101515.84;5071818;28;19916;-89
2023/09/28 11:26:05;;;;;;;;;;;;;;;25.03;66.49;101510.56;5072841;28;19913;-89
2023/09/28 11:28:31;;;;;;;;;;;;;;;25.01;66.63;101515.00;5071430;28;20408;-88
2023/09/28 11:31:09;;;;;;;;;;;;;;;25.08;66.33;101511.47;5072457;28;19917;-85
2023/09/28 11:33:35;;;;;;;;;;;;;;;25.11;66.74;101516.84;5070817;28;19923;-86
2023/09/28 11:36:01;;;;;;;;;;;;;;;25.11;66.40;101512.38;5071139;28;19940;-87
2023/09/28 11:38:27;;;;;;;;;;;;;;;25.09;66.54;101513.25;5071288;28;19918;-87
2023/09/28 11:40:54;;;;;;;;;;;;;;;25.09;66.79;101507.91;5061078;28;20019;-87
2023/09/28 11:43:19;;;;;;;;;;;;;;;25.08;66.88;101514.13;5069348;28;19932;-87
2023/09/28 11:45:46;;;;;;;;;;;;;;;25.00;66.43;101511.44;5064503;28;19917;-88
2023/09/28 11:48:16;;;;;;;;;;;;;;;25.08;66.03;101507.03;5054469;28;19977;-87
2023/09/28 11:50:41;;;;;;;;;;;;;;;25.11;65.87;101511.50;5060918;28;19927;-87
2023/09/28 11:53:09;;;;;;;;;;;;;;;25.12;65.82;101510.59;5071459;28;21308;-87
2023/09/28 11:55:36;;;;;;;;;;;;;;;25.07;65.64;101504.34;5072520;28;19912;-87
2023/09/28 11:58:02;;;;;;;;;;;;;;;25.15;65.76;101502.59;5071283;28;20369;-87
2023/09/28 12:00:28;;;;;;;;;;;;;;;25.09;65.79;101500.78;5070903;28;19928;-87
2023/09/28 12:02:54;;;;;;;;;;;;;;;25.16;65.98;101505.25;5067841;28;19916;-86
2023/09/28 12:05:20;;;;;;;;;;;;;;;25.16;65.85;101501.72;5071139;28;19920;-86
2023/09/28 12:07:45;;;;;;;;;;;;;;;25.18;65.94;101510.63;5070802;28;19917;-87
2023/09/28 12:10:17;;;;;;;;;;;;;;;25.17;66.06;101506.19;5070689;28;20333;-87
2023/09/28 12:12:43;;;;;;;;;;;;;;;25.23;66.19;101505.34;5053515;28;19924;-87
2023/09/28 12:15:11;;;;;;;;;;;;;;;25.22;66.30;101507.13;5054042;28;19912;-86
2023/09/28 12:17:46;;;;;;;;;;;;;;;25.27;66.03;101512.50;5053595;28;19923;-86
2023/09/28 12:20:14;;;;;;;;;;;;;;;25.27;66.06;101516.06;5070883;28;19913;-87
2023/09/28 12:22:40;;;;;;;;;;;;;;;25.22;66.68;101515.16;5069069;28;19919;-87
2023/09/28 12:25:08;;;;;;;;;;;;;;;25.21;66.50;101518.72;5068574;28;19916;-88
2023/09/28 12:27:35;;;;;;;;;;;;;;;25.21;66.53;101509.78;5070349;28;19912;-87
2023/09/28 12:30:00;;;;;;;;;;;;;;;25.19;66.46;101517.78;5069049;28;19917;-87
2023/09/28 12:32:28;;;;;;;;;;;;;;;25.14;66.55;101515.06;5070907;28;19919;-88
2023/09/28 12:35:21;;;;;;;;;;;;;;;25.22;66.43;101504.44;5070578;28;19923;-88
2023/09/28 12:37:49;;;;;;;;;;;;;;;25.19;66.76;101504.41;5060266;28;19939;-88
2023/09/28 12:40:17;;;;;;;;;;;;;;;25.13;66.79;101505.25;5081012;28;19916;-88
2023/09/28 12:42:43;;;;;;;;;;;;;;;25.17;66.83;101501.72;5057780;28;19912;-88